Time;durP1;ratioP1;P1;durP2;ratioP2;P2;SDS_P1;SDS_P2;PMS_P1;PMS_P2;Temp;Humidity;BMP_temperature;BMP_pressure;BME280_temperature;BME280_humidity;BME280_pressure;Samples;Min_cycle;Max_cycle;Signal;HPM_P1;HPM_P2
2023/07/21 00:00:57;;;;;;;0.37;0.37;;;15.90;99.90;;;;;;4388298;32;20128;-66
2023/07/21 00:03:23;;;;;;;0.30;0.30;;;15.80;99.90;;;;;;4383404;32;20067;-65
2023/07/21 00:05:48;;;;;;;0.30;0.30;;;15.80;99.90;;;;;;4386473;32;20570;-65
2023/07/21 00:08:14;;;;;;;0.30;0.30;;;15.70;99.90;;;;;;4392731;32;20058;-65
2023/07/21 00:10:39;;;;;;;0.20;0.20;;;15.70;99.90;;;;;;4390472;32;20085;-65
2023/07/21 00:13:05;;;;;;;0.28;0.28;;;15.40;99.90;;;;;;4385467;32;20070;-65
2023/07/21 00:15:31;;;;;;;0.30;0.30;;;15.30;99.90;;;;;;4384896;32;20540;-67
2023/07/21 00:17:56;;;;;;;0.40;0.40;;;15.30;99.90;;;;;;4394673;32;20062;-65
2023/07/21 00:20:24;;;;;;;0.32;0.32;;;15.20;99.90;;;;;;4379592;32;20122;-66
2023/07/21 00:22:50;;;;;;;0.40;0.40;;;15.20;99.90;;;;;;4385179;32;20523;-65
2023/07/21 00:25:16;;;;;;;0.20;0.20;;;15.10;99.90;;;;;;4383336;32;20070;-64
2023/07/21 00:27:43;;;;;;;0.20;0.20;;;15.10;99.90;;;;;;4389088;32;20144;-65
2023/07/21 00:30:09;;;;;;;1.95;0.62;;;15.10;99.90;;;;;;4390309;32;20086;-66
2023/07/21 00:32:35;;;;;;;0.30;0.30;;;15.20;99.90;;;;;;4388546;32;20514;-67
2023/07/21 00:35:04;;;;;;;0.20;0.20;;;15.20;99.90;;;;;;4390989;32;20070;-65
2023/07/21 00:37:29;;;;;;;0.30;0.30;;;15.10;99.90;;;;;;4389686;32;20065;-65
2023/07/21 00:39:55;;;;;;;0.13;0.10;;;15.10;99.90;;;;;;4387354;32;20062;-65
2023/07/21 00:42:20;;;;;;;0.30;0.30;;;15.00;99.90;;;;;;4392109;32;20070;-65
2023/07/21 00:44:46;;;;;;;3.60;0.40;;;15.00;99.90;;;;;;4385875;32;20086;-66
2023/07/21 00:47:12;;;;;;;0.30;0.30;;;15.00;99.90;;;;;;4398002;32;20069;-65
2023/07/21 00:49:38;;;;;;;0.30;0.30;;;15.00;99.90;;;;;;4395292;32;20086;-65
2023/07/21 00:52:04;;;;;;;0.40;0.40;;;15.00;99.90;;;;;;4413378;32;20062;-66
2023/07/21 00:54:31;;;;;;;0.20;0.20;;;15.20;99.90;;;;;;4414699;32;20449;-65
2023/07/21 00:56:57;;;;;;;0.20;0.20;;;15.10;99.90;;;;;;4406358;32;20086;-65
2023/07/21 00:59:23;;;;;;;1.35;0.57;;;15.00;99.90;;;;;;4411295;32;20085;-64
2023/07/21 01:01:48;;;;;;;0.25;0.25;;;15.00;99.90;;;;;;4399426;32;20415;-65
2023/07/21 01:04:14;;;;;;;0.30;0.30;;;15.00;99.90;;;;;;4414580;32;20510;-65
2023/07/21 01:06:41;;;;;;;0.20;0.20;;;15.00;99.90;;;;;;4409484;32;20086;-65
2023/07/21 01:09:08;;;;;;;0.32;0.32;;;15.10;99.90;;;;;;4414760;32;20537;-65
2023/07/21 01:11:35;;;;;;;0.50;0.50;;;15.00;99.90;;;;;;4414426;32;20604;-62
2023/07/21 01:14:03;;;;;;;7.22;0.70;;;14.90;99.90;;;;;;4402469;32;20131;-64
2023/07/21 01:16:30;;;;;;;0.20;0.20;;;14.90;99.90;;;;;;4400986;32;20058;-66
2023/07/21 01:18:56;;;;;;;0.32;0.32;;;14.80;99.90;;;;;;4407851;32;20073;-66
2023/07/21 01:21:40;;;;;;;0.40;0.40;;;14.70;99.90;;;;;;4409856;32;20078;-65
2023/07/21 01:24:14;;;;;;;1.48;0.45;;;14.70;99.90;;;;;;4401638;32;20456;-66
2023/07/21 01:26:41;;;;;;;0.13;0.13;;;14.80;99.90;;;;;;4409374;32;20524;-64
2023/07/21 01:29:08;;;;;;;0.30;0.30;;;14.80;99.90;;;;;;4402832;32;20066;-65
2023/07/21 01:31:35;;;;;;;0.40;0.40;;;14.80;99.90;;;;;;4411635;32;20550;-62
2023/07/21 01:34:02;;;;;;;0.43;0.43;;;14.90;99.90;;;;;;4406393;32;20086;-62
2023/07/21 01:36:29;;;;;;;0.40;0.40;;;14.80;99.90;;;;;;4420861;32;20128;-63
2023/07/21 01:38:55;;;;;;;0.20;0.20;;;14.70;99.90;;;;;;4419278;32;20071;-62
2023/07/21 01:41:21;;;;;;;0.20;0.20;;;14.50;99.90;;;;;;4420750;32;20552;-61
2023/07/21 01:43:48;;;;;;;0.30;0.30;;;14.50;99.90;;;;;;4420597;32;20073;-62
2023/07/21 01:46:13;;;;;;;0.45;0.45;;;14.50;99.90;;;;;;4418110;32;20070;-62
2023/07/21 01:48:39;;;;;;;0.30;0.30;;;14.30;99.90;;;;;;4424899;32;20073;-61
2023/07/21 01:51:06;;;;;;;0.20;0.20;;;14.40;99.90;;;;;;4409527;32;20074;-63
2023/07/21 01:53:35;;;;;;;0.32;0.30;;;14.40;99.90;;;;;;4393325;32;20071;-62
2023/07/21 01:56:06;;;;;;;0.32;0.32;;;14.30;99.90;;;;;;4392262;32;20121;-64
2023/07/21 01:58:33;;;;;;;0.30;0.30;;;14.30;99.90;;;;;;4391929;32;20074;-63
2023/07/21 02:01:00;;;;;;;0.30;0.30;;;14.30;99.90;;;;;;4390185;32;20082;-64
2023/07/21 02:03:26;;;;;;;0.47;0.47;;;14.30;99.90;;;;;;4393516;32;20074;-64
2023/07/21 02:05:52;;;;;;;0.25;0.25;;;14.30;99.90;;;;;;4390252;32;20069;-63
2023/07/21 02:08:20;;;;;;;0.20;0.20;;;14.30;99.90;;;;;;4391495;32;20074;-64
2023/07/21 02:10:46;;;;;;;0.28;0.28;;;14.40;99.90;;;;;;4391696;32;20066;-62
2023/07/21 02:13:13;;;;;;;0.35;0.35;;;14.30;99.90;;;;;;4391387;32;20087;-63
2023/07/21 02:15:39;;;;;;;0.47;0.30;;;14.30;99.90;;;;;;4392979;32;20428;-63
2023/07/21 02:18:04;;;;;;;0.20;0.20;;;14.30;99.90;;;;;;4378941;32;20074;-63
2023/07/21 02:20:30;;;;;;;0.22;0.22;;;14.30;99.90;;;;;;4381519;32;20151;-63
2023/07/21 02:22:55;;;;;;;0.20;0.20;;;14.30;99.90;;;;;;4388880;32;20066;-65
2023/07/21 02:25:21;;;;;;;0.47;0.30;;;14.30;99.90;;;;;;4391265;32;20117;-62
2023/07/21 02:27:46;;;;;;;0.20;0.20;;;14.30;99.90;;;;;;4390360;32;20082;-62
2023/07/21 02:30:12;;;;;;;0.30;0.30;;;14.30;99.90;;;;;;4363977;32;20070;-62
2023/07/21 02:32:37;;;;;;;0.40;0.40;;;14.20;99.90;;;;;;4389628;32;20098;-62
2023/07/21 02:35:05;;;;;;;0.32;0.30;;;14.20;99.90;;;;;;4379024;32;20121;-63
2023/07/21 02:37:30;;;;;;;0.55;0.40;;;14.20;99.90;;;;;;4391160;32;20448;-64
2023/07/21 02:39:56;;;;;;;0.28;0.28;;;14.10;99.90;;;;;;4392898;32;20066;-62
2023/07/21 02:42:22;;;;;;;0.30;0.30;;;14.10;99.90;;;;;;4392195;32;20146;-63
2023/07/21 02:44:47;;;;;;;0.22;0.22;;;14.10;99.90;;;;;;4392233;32;20074;-63
2023/07/21 02:47:16;;;;;;;0.20;0.20;;;14.10;99.90;;;;;;4391923;32;20091;-63
2023/07/21 02:49:42;;;;;;;0.30;0.30;;;13.90;99.90;;;;;;4394136;32;20130;-63
2023/07/21 02:52:07;;;;;;;0.30;0.30;;;13.90;99.90;;;;;;4408163;32;20070;-64
2023/07/21 02:54:33;;;;;;;0.30;0.30;;;13.80;99.90;;;;;;4407878;32;20074;-63
2023/07/21 02:56:59;;;;;;;6.47;1.15;;;13.70;99.90;;;;;;4408254;32;20074;-62
2023/07/21 02:59:26;;;;;;;0.43;0.43;;;13.70;99.90;;;;;;4412874;32;20062;-63
2023/07/21 03:01:55;;;;;;;0.55;0.45;;;13.70;99.90;;;;;;4409611;32;20061;-63
2023/07/21 03:04:24;;;;;;;0.20;0.20;;;13.70;99.90;;;;;;4410854;32;20069;-64
2023/07/21 03:06:50;;;;;;;0.32;0.32;;;13.70;99.90;;;;;;4405425;32;20096;-61
2023/07/21 03:09:15;;;;;;;0.30;0.30;;;13.70;99.90;;;;;;4416183;32;20070;-61
2023/07/21 03:11:41;;;;;;;0.30;0.30;;;13.80;99.90;;;;;;4405244;32;20150;-61
2023/07/21 03:14:06;;;;;;;0.30;0.30;;;13.80;99.90;;;;;;4414735;32;20065;-61
2023/07/21 03:16:32;;;;;;;0.25;0.25;;;13.70;99.90;;;;;;4412994;32;20090;-62
2023/07/21 03:18:57;;;;;;;1.02;0.60;;;13.60;99.90;;;;;;4411697;32;20094;-62
2023/07/21 03:21:23;;;;;;;0.30;0.30;;;13.60;99.90;;;;;;4405572;32;20090;-64
2023/07/21 03:23:48;;;;;;;0.40;0.40;;;13.60;99.90;;;;;;4408103;32;20065;-61
2023/07/21 03:26:14;;;;;;;0.40;0.40;;;13.60;99.90;;;;;;4407407;32;20065;-62
2023/07/21 03:28:39;;;;;;;0.90;0.50;;;13.60;99.90;;;;;;4406684;32;20078;-63
2023/07/21 03:31:05;;;;;;;0.20;0.20;;;13.60;99.90;;;;;;4419909;32;20116;-65
2023/07/21 03:33:30;;;;;;;0.30;0.30;;;13.60;99.90;;;;;;4399752;32;20537;-64
2023/07/21 03:36:00;;;;;;;0.30;0.30;;;13.60;99.90;;;;;;4400180;32;20061;-62
2023/07/21 03:38:25;;;;;;;0.30;0.30;;;13.70;99.90;;;;;;4400168;32;20081;-62
2023/07/21 03:41:00;;;;;;;0.20;0.20;;;13.70;99.90;;;;;;4408704;32;20121;-60
2023/07/21 03:43:25;;;;;;;0.45;0.43;;;13.60;99.90;;;;;;4406297;32;20112;-62
2023/07/21 03:45:57;;;;;;;0.30;0.30;;;13.60;99.90;;;;;;4411341;32;20078;-62
2023/07/21 03:48:23;;;;;;;0.30;0.30;;;13.60;99.90;;;;;;4395673;32;20086;-62
2023/07/21 03:50:48;;;;;;;0.40;0.40;;;13.60;99.90;;;;;;4405621;32;20199;-63
2023/07/21 03:53:14;;;;;;;0.88;0.50;;;13.70;99.90;;;;;;4400216;32;20094;-63
2023/07/21 03:55:41;;;;;;;3.92;2.08;;;13.70;99.90;;;;;;4411913;32;20061;-63
2023/07/21 03:58:06;;;;;;;0.45;0.40;;;13.70;99.90;;;;;;4411689;32;20073;-62
2023/07/21 04:00:33;;;;;;;0.20;0.20;;;13.70;99.90;;;;;;4398971;32;20535;-63
2023/07/21 04:02:59;;;;;;;2.25;1.08;;;13.80;99.90;;;;;;4399231;32;20078;-63
2023/07/21 04:05:25;;;;;;;1.58;1.30;;;13.90;99.90;;;;;;4411845;32;20118;-62
2023/07/21 04:07:50;;;;;;;0.55;0.52;;;13.90;99.90;;;;;;4394554;32;20492;-62
2023/07/21 04:10:16;;;;;;;0.20;0.20;;;14.00;99.90;;;;;;4401731;32;20095;-63
2023/07/21 04:12:41;;;;;;;0.60;0.60;;;14.10;99.90;;;;;;4408993;32;20485;-63
2023/07/21 04:15:07;;;;;;;2.83;0.68;;;14.00;99.90;;;;;;4407773;32;20069;-62
2023/07/21 04:17:33;;;;;;;0.22;0.22;;;13.90;99.90;;;;;;4414524;32;20073;-62
2023/07/21 04:19:58;;;;;;;6.07;0.60;;;14.00;99.90;;;;;;4410022;32;20070;-63
2023/07/21 04:22:24;;;;;;;0.20;0.20;;;14.00;99.90;;;;;;4404444;32;20082;-63
2023/07/21 04:24:49;;;;;;;0.43;0.43;;;14.10;99.90;;;;;;4414655;32;20077;-63
2023/07/21 04:27:15;;;;;;;0.20;0.20;;;14.20;99.90;;;;;;4413034;32;20062;-64
2023/07/21 04:29:40;;;;;;;0.75;0.60;;;14.30;99.90;;;;;;4407657;32;20112;-63
2023/07/21 04:32:06;;;;;;;0.22;0.22;;;14.30;99.90;;;;;;4413789;32;20094;-62
2023/07/21 04:34:31;;;;;;;0.30;0.30;;;14.30;99.90;;;;;;4399786;32;20065;-63
2023/07/21 04:36:57;;;;;;;0.30;0.30;;;14.30;99.90;;;;;;4415235;32;20073;-64
2023/07/21 04:39:23;;;;;;;0.28;0.28;;;14.50;99.90;;;;;;4403666;32;20062;-63
2023/07/21 04:41:48;;;;;;;0.40;0.40;;;14.50;99.90;;;;;;4414993;32;20438;-63
2023/07/21 04:44:15;;;;;;;0.40;0.40;;;14.60;99.90;;;;;;4414131;32;20427;-64
2023/07/21 04:46:41;;;;;;;0.50;0.50;;;14.60;99.90;;;;;;4400702;32;20542;-63
2023/07/21 04:49:07;;;;;;;0.30;0.30;;;14.70;99.90;;;;;;4412760;32;20078;-63
2023/07/21 04:51:33;;;;;;;0.20;0.20;;;14.80;99.90;;;;;;4402984;32;20066;-62
2023/07/21 04:53:58;;;;;;;0.47;0.47;;;14.90;99.90;;;;;;4402411;32;20070;-62
2023/07/21 04:56:25;;;;;;;0.35;0.35;;;14.90;99.90;;;;;;4404118;32;20078;-63
2023/07/21 04:58:50;;;;;;;0.32;0.32;;;15.00;99.90;;;;;;4403562;32;20490;-62
2023/07/21 05:01:16;;;;;;;0.30;0.30;;;15.00;99.90;;;;;;4404794;32;20069;-64
2023/07/21 05:03:42;;;;;;;0.30;0.30;;;15.10;99.90;;;;;;4400244;32;20678;-63
2023/07/21 05:06:09;;;;;;;0.20;0.20;;;15.10;99.90;;;;;;4413665;32;20066;-68
2023/07/21 05:08:35;;;;;;;0.28;0.20;;;15.20;99.90;;;;;;4403308;32;20078;-63
2023/07/21 05:11:00;;;;;;;0.30;0.30;;;15.20;99.90;;;;;;4398407;32;20070;-63
2023/07/21 05:13:26;;;;;;;0.68;0.68;;;15.20;99.90;;;;;;4404191;32;20062;-63
2023/07/21 05:15:51;;;;;;;0.40;0.40;;;15.20;99.90;;;;;;4407624;32;20388;-62
2023/07/21 05:18:17;;;;;;;0.30;0.30;;;15.20;99.90;;;;;;4394310;32;20082;-62
2023/07/21 05:20:42;;;;;;;0.30;0.30;;;15.20;99.90;;;;;;4402901;32;20082;-63
2023/07/21 05:23:09;;;;;;;0.45;0.45;;;15.20;99.90;;;;;;4399481;32;20070;-63
2023/07/21 05:25:34;;;;;;;2.25;1.15;;;15.20;99.90;;;;;;4402720;32;20066;-63
2023/07/21 05:28:00;;;;;;;20.80;0.82;;;15.30;99.90;;;;;;4408078;32;20069;-62
2023/07/21 05:30:25;;;;;;;0.37;0.37;;;15.30;99.90;;;;;;4412252;32;20502;-63
2023/07/21 05:32:51;;;;;;;0.30;0.30;;;15.30;99.90;;;;;;4399266;32;20091;-63
2023/07/21 05:35:16;;;;;;;0.50;0.32;;;15.30;99.90;;;;;;4398432;32;20065;-63
2023/07/21 05:37:42;;;;;;;0.40;0.40;;;15.40;99.90;;;;;;4400806;32;20067;-63
2023/07/21 05:40:09;;;;;;;0.30;0.30;;;15.50;99.90;;;;;;4407195;32;20065;-62
2023/07/21 05:42:35;;;;;;;0.20;0.20;;;15.50;99.90;;;;;;4410848;32;20065;-63
2023/07/21 05:45:02;;;;;;;0.30;0.30;;;15.60;99.90;;;;;;4400036;32;20511;-64
2023/07/21 05:47:27;;;;;;;0.37;0.37;;;15.60;99.90;;;;;;4398978;32;20086;-64
2023/07/21 05:50:00;;;;;;;0.30;0.30;;;15.60;99.90;;;;;;4402790;32;20540;-64
2023/07/21 05:52:26;;;;;;;0.30;0.30;;;15.80;99.90;;;;;;4413528;32;20124;-64
2023/07/21 05:54:52;;;;;;;0.30;0.30;;;16.00;99.90;;;;;;4414141;32;20521;-63
2023/07/21 05:57:17;;;;;;;0.40;0.40;;;16.00;99.90;;;;;;4414370;32;20058;-64
2023/07/21 05:59:45;;;;;;;0.52;0.52;;;16.00;99.90;;;;;;4410678;32;20119;-64
2023/07/21 06:02:11;;;;;;;0.30;0.30;;;16.10;99.90;;;;;;4399678;32;20074;-63
2023/07/21 06:04:36;;;;;;;0.45;0.45;;;16.20;99.90;;;;;;4413093;32;20132;-64
2023/07/21 06:07:02;;;;;;;0.35;0.35;;;16.20;99.90;;;;;;4408542;32;20081;-66
2023/07/21 06:09:28;;;;;;;0.40;0.40;;;16.10;99.90;;;;;;4414123;32;20128;-65
2023/07/21 06:11:54;;;;;;;0.40;0.40;;;16.20;99.90;;;;;;4399323;32;20086;-65
2023/07/21 06:14:20;;;;;;;0.35;0.35;;;16.20;99.90;;;;;;4401442;32;20066;-63
2023/07/21 06:16:45;;;;;;;4.50;1.50;;;16.30;99.90;;;;;;4399266;32;20129;-65
2023/07/21 06:19:11;;;;;;;2.10;0.95;;;16.40;99.90;;;;;;4412810;32;20069;-63
2023/07/21 06:21:36;;;;;;;1.40;0.70;;;16.40;99.90;;;;;;4413252;32;20161;-63
2023/07/21 06:24:02;;;;;;;0.60;0.60;;;16.50;99.90;;;;;;4405043;32;20568;-63
2023/07/21 06:26:28;;;;;;;0.85;0.77;;;16.50;99.90;;;;;;4403761;32;20070;-63
2023/07/21 06:28:53;;;;;;;0.80;0.80;;;16.50;99.90;;;;;;4413270;32;20069;-64
2023/07/21 06:31:19;;;;;;;0.70;0.70;;;16.60;99.90;;;;;;4412039;32;20078;-64
2023/07/21 06:33:44;;;;;;;0.90;0.50;;;16.60;99.90;;;;;;4413440;32;20521;-62
2023/07/21 06:36:09;;;;;;;1.12;0.52;;;16.60;99.90;;;;;;4413844;32;20086;-64
2023/07/21 06:38:35;;;;;;;8.32;0.80;;;16.50;99.90;;;;;;4405755;32;20121;-65
2023/07/21 06:41:04;;;;;;;0.77;0.77;;;16.60;99.90;;;;;;4400964;32;20537;-63
2023/07/21 06:43:29;;;;;;;0.32;0.32;;;16.60;99.90;;;;;;4392285;32;20572;-64
2023/07/21 06:45:55;;;;;;;0.60;0.60;;;16.60;99.90;;;;;;4409091;32;20128;-64
2023/07/21 06:48:20;;;;;;;7.97;1.90;;;16.60;99.90;;;;;;4413147;32;20165;-64
2023/07/21 06:50:47;;;;;;;2.75;1.60;;;16.60;99.90;;;;;;4396680;32;20475;-64
2023/07/21 06:53:13;;;;;;;9.95;1.23;;;16.60;99.90;;;;;;4391686;32;20645;-64
2023/07/21 06:55:39;;;;;;;1.30;1.10;;;16.50;99.90;;;;;;4385477;32;20061;-64
2023/07/21 06:58:04;;;;;;;9.75;2.28;;;16.60;99.90;;;;;;4386773;32;20543;-65
2023/07/21 07:00:30;;;;;;;6.25;2.60;;;16.60;99.90;;;;;;4387838;32;20074;-63
2023/07/21 07:02:56;;;;;;;1.77;1.35;;;16.70;99.90;;;;;;4434835;27;20077;-74
2023/07/21 07:05:23;;;;;;;2.55;1.67;;;16.60;99.90;;;;;;4419679;32;20534;-74
2023/07/21 07:07:52;;;;;;;16.85;3.95;;;16.60;99.90;;;;;;4427476;32;20098;-74
2023/07/21 07:10:18;;;;;;;8.30;2.53;;;16.70;99.90;;;;;;4427122;32;20787;-74
2023/07/21 07:12:43;;;;;;;10.48;1.90;;;16.70;99.90;;;;;;4420062;32;20073;-75
2023/07/21 07:15:10;;;;;;;3.75;2.15;;;16.60;99.90;;;;;;4419207;32;20592;-74
2023/07/21 07:17:36;;;;;;;6.30;2.70;;;16.60;99.90;;;;;;4419386;32;20482;-74
2023/07/21 07:20:03;;;;;;;14.02;2.42;;;16.70;99.90;;;;;;4421032;32;20061;-75
2023/07/21 07:22:29;;;;;;;12.43;2.35;;;16.80;99.90;;;;;;4425641;32;20511;-74
2023/07/21 07:24:54;;;;;;;2.50;1.30;;;16.90;99.90;;;;;;4413649;32;20066;-74
2023/07/21 07:27:20;;;;;;;8.82;1.45;;;17.00;99.90;;;;;;4426752;32;20094;-73
2023/07/21 07:29:46;;;;;;;1.98;1.67;;;17.00;99.90;;;;;;4423094;32;20494;-74
2023/07/21 07:32:13;;;;;;;1.62;0.57;;;17.00;99.90;;;;;;4415600;32;20109;-74
2023/07/21 07:34:40;;;;;;;1.45;1.10;;;17.00;99.90;;;;;;4410652;32;20139;-76
2023/07/21 07:37:06;;;;;;;1.08;0.85;;;17.10;99.90;;;;;;4412537;32;20077;-75
2023/07/21 07:39:32;;;;;;;1.05;0.93;;;17.10;99.90;;;;;;4409662;32;20128;-74
2023/07/21 07:41:57;;;;;;;1.98;0.65;;;17.30;99.90;;;;;;4410975;32;20533;-75
2023/07/21 07:44:23;;;;;;;0.85;0.82;;;17.50;99.90;;;;;;4403852;32;20428;-76
2023/07/21 07:46:48;;;;;;;1.92;1.08;;;17.60;99.90;;;;;;4407591;32;20120;-74
2023/07/21 07:49:14;;;;;;;0.80;0.80;;;17.70;99.90;;;;;;4414925;32;20093;-74
2023/07/21 07:51:39;;;;;;;1.55;0.80;;;17.80;99.90;;;;;;4408599;32;20141;-75
2023/07/21 07:54:06;;;;;;;1.15;0.85;;;17.80;99.90;;;;;;4406402;32;20083;-75
2023/07/21 07:56:31;;;;;;;1.20;1.10;;;17.90;99.90;;;;;;4407283;32;20070;-75
2023/07/21 07:58:57;;;;;;;0.82;0.82;;;17.90;99.90;;;;;;4402360;32;20118;-75
2023/07/21 08:01:23;;;;;;;1.67;0.60;;;17.90;99.90;;;;;;4411171;32;20098;-75
2023/07/21 08:03:49;;;;;;;4.95;1.25;;;18.00;99.90;;;;;;4408515;32;20062;-74
2023/07/21 08:06:15;;;;;;;0.43;0.43;;;18.00;99.90;;;;;;4414277;32;20065;-75
2023/07/21 08:08:42;;;;;;;0.90;0.75;;;18.10;99.90;;;;;;4405076;32;20081;-75
2023/07/21 08:11:08;;;;;;;0.40;0.40;;;18.20;99.90;;;;;;4405713;32;20067;-75
2023/07/21 08:13:34;;;;;;;3.20;0.65;;;18.20;99.90;;;;;;4408414;32;20079;-75
2023/07/21 08:16:00;;;;;;;0.30;0.30;;;18.40;99.90;;;;;;4402754;32;20093;-75
2023/07/21 08:18:25;;;;;;;0.70;0.70;;;18.50;99.90;;;;;;4401971;32;20066;-75
2023/07/21 08:20:51;;;;;;;0.93;0.68;;;18.60;99.90;;;;;;4413254;32;20124;-75
2023/07/21 08:23:17;;;;;;;0.20;0.20;;;18.60;99.90;;;;;;4415156;32;20082;-75
2023/07/21 08:25:42;;;;;;;0.30;0.30;;;18.60;99.90;;;;;;4412859;32;20065;-75
2023/07/21 08:28:08;;;;;;;2.05;0.50;;;18.60;99.90;;;;;;4414708;32;20069;-75
2023/07/21 08:30:34;;;;;;;0.25;0.25;;;18.60;99.90;;;;;;4407355;32;20079;-75
2023/07/21 08:33:01;;;;;;;0.30;0.30;;;18.60;99.90;;;;;;4401578;32;20481;-75
2023/07/21 08:35:27;;;;;;;0.37;0.37;;;18.60;99.90;;;;;;4414237;32;20085;-75
2023/07/21 08:37:53;;;;;;;0.40;0.40;;;18.60;99.90;;;;;;4415092;32;20085;-74
2023/07/21 08:40:22;;;;;;;0.30;0.30;;;18.70;99.90;;;;;;4410032;32;20589;-76
2023/07/21 08:42:49;;;;;;;0.30;0.30;;;18.60;99.90;;;;;;4399764;32;20070;-75
2023/07/21 08:45:15;;;;;;;0.20;0.20;;;18.60;99.90;;;;;;4414789;32;20398;-75
2023/07/21 08:47:40;;;;;;;0.20;0.20;;;18.60;99.90;;;;;;4414107;32;20066;-74
2023/07/21 08:50:06;;;;;;;0.20;0.20;;;18.70;99.90;;;;;;4409595;32;20334;-74
2023/07/21 08:52:32;;;;;;;0.30;0.30;;;18.80;99.90;;;;;;4410014;32;20074;-74
2023/07/21 08:54:57;;;;;;;0.40;0.40;;;18.90;99.90;;;;;;4414721;32;20066;-75
2023/07/21 08:57:23;;;;;;;0.30;0.30;;;18.90;99.90;;;;;;4413771;32;20124;-75
2023/07/21 08:59:49;;;;;;;1.45;0.60;;;19.00;99.90;;;;;;4413668;32;20073;-75
2023/07/21 09:02:15;;;;;;;0.32;0.32;;;19.00;99.90;;;;;;4414235;32;20065;-75
2023/07/21 09:04:43;;;;;;;0.20;0.20;;;19.00;99.90;;;;;;4414693;32;20070;-75
2023/07/21 09:07:11;;;;;;;0.20;0.20;;;19.00;99.90;;;;;;4414563;32;20466;-75
2023/07/21 09:09:37;;;;;;;0.75;0.75;;;19.00;99.90;;;;;;4414029;32;20124;-75
2023/07/21 09:12:05;;;;;;;0.30;0.30;;;19.10;99.90;;;;;;4413482;32;20065;-76
2023/07/21 09:14:40;;;;;;;1.48;1.15;;;19.00;99.90;;;;;;4414299;32;20131;-74
2023/07/21 09:17:07;;;;;;;4.12;0.70;;;19.00;99.90;;;;;;4414128;32;20481;-76
2023/07/21 09:19:37;;;;;;;0.28;0.28;;;19.00;99.90;;;;;;4414175;32;20501;-74
2023/07/21 09:22:03;;;;;;;0.20;0.20;;;19.20;99.90;;;;;;4414576;32;20062;-76
2023/07/21 09:24:28;;;;;;;0.47;0.47;;;19.20;99.90;;;;;;4414526;32;20094;-75
2023/07/21 09:27:15;;;;;;;0.32;0.32;;;19.30;99.90;;;;;;4406698;32;20091;-75
2023/07/21 09:29:41;;;;;;;0.25;0.25;;;19.30;99.90;;;;;;4397635;32;20410;-75
2023/07/21 09:32:19;;;;;;;0.20;0.20;;;19.40;99.90;;;;;;4411010;32;20136;-75
2023/07/21 09:34:54;;;;;;;0.30;0.30;;;19.40;99.90;;;;;;4412792;32;20612;-76
2023/07/21 09:37:21;;;;;;;2.10;0.73;;;19.50;99.90;;;;;;4412714;32;20083;-75
2023/07/21 09:39:52;;;;;;;0.50;0.50;;;19.60;99.90;;;;;;4413653;32;20073;-75
2023/07/21 09:42:22;;;;;;;0.30;0.30;;;19.60;99.90;;;;;;4413252;32;20077;-75
2023/07/21 09:44:48;;;;;;;6.55;1.08;;;19.70;99.90;;;;;;4415363;32;20061;-75
2023/07/21 09:47:16;;;;;;;0.30;0.30;;;19.70;99.90;;;;;;4413092;32;20065;-75
2023/07/21 09:49:41;;;;;;;0.32;0.32;;;19.70;99.90;;;;;;4414039;32;20538;-76
2023/07/21 09:52:10;;;;;;;0.98;0.85;;;19.60;99.90;;;;;;4413100;32;20066;-73
2023/07/21 09:54:39;;;;;;;0.20;0.20;;;19.60;99.90;;;;;;4413010;32;20434;-74
2023/07/21 09:57:07;;;;;;;0.22;0.22;;;19.70;99.90;;;;;;4408196;32;20089;-74
2023/07/21 09:59:36;;;;;;;0.28;0.28;;;19.80;99.90;;;;;;4411325;32;20426;-76
2023/07/21 10:02:02;;;;;;;0.20;0.20;;;19.90;99.90;;;;;;4412901;32;20098;-75
2023/07/21 10:04:28;;;;;;;1.98;1.15;;;20.00;99.90;;;;;;4412838;32;20090;-75
2023/07/21 10:06:58;;;;;;;0.75;0.30;;;20.00;99.90;;;;;;4409517;32;20506;-75
2023/07/21 10:09:26;;;;;;;0.20;0.20;;;19.90;99.90;;;;;;4413593;32;20073;-75
2023/07/21 10:11:52;;;;;;;0.30;0.30;;;19.80;99.90;;;;;;4412994;32;20143;-75
2023/07/21 10:14:33;;;;;;;0.30;0.30;;;19.90;99.90;;;;;;4411726;32;20585;-76
2023/07/21 10:16:59;;;;;;;0.20;0.20;;;19.90;99.90;;;;;;4402957;32;20397;-76
2023/07/21 10:19:29;;;;;;;0.35;0.35;;;20.00;99.90;;;;;;4410323;32;20053;-75
2023/07/21 10:21:54;;;;;;;0.37;0.37;;;20.10;99.90;;;;;;4417124;32;20560;-76
2023/07/21 10:24:28;;;;;;;0.30;0.30;;;20.10;99.90;;;;;;4407496;32;20296;-77
2023/07/21 10:26:56;;;;;;;5.15;1.05;;;20.20;99.90;;;;;;4410096;32;20426;-75
2023/07/21 10:29:21;;;;;;;0.22;0.22;;;20.30;99.90;;;;;;4412110;32;20124;-75
2023/07/21 10:31:52;;;;;;;0.20;0.20;;;20.30;99.90;;;;;;4408566;32;20082;-76
2023/07/21 10:34:18;;;;;;;0.80;0.47;;;20.30;99.90;;;;;;4410346;32;20121;-75
2023/07/21 10:36:53;;;;;;;0.30;0.30;;;20.40;99.90;;;;;;4411069;32;20081;-76
2023/07/21 10:39:22;;;;;;;1.62;1.05;;;20.40;99.90;;;;;;4385424;32;20078;-75
2023/07/21 10:42:05;;;;;;;0.25;0.25;;;20.50;99.90;;;;;;4410209;32;20427;-76
2023/07/21 10:44:41;;;;;;;0.22;0.22;;;20.60;99.90;;;;;;4413375;32;20850;-75
2023/07/21 10:47:16;;;;;;;0.30;0.30;;;20.70;99.90;;;;;;4412483;32;20082;-76
2023/07/21 10:49:42;;;;;;;0.20;0.20;;;20.90;99.90;;;;;;4413098;32;20074;-76
2023/07/21 10:52:08;;;;;;;0.28;0.28;;;20.80;99.90;;;;;;4413137;32;20098;-76
2023/07/21 10:54:35;;;;;;;0.62;0.62;;;20.80;99.90;;;;;;4413474;32;20073;-76
2023/07/21 10:57:02;;;;;;;0.40;0.40;;;20.80;99.90;;;;;;4412945;32;20078;-75
2023/07/21 10:59:30;;;;;;;0.40;0.40;;;20.80;99.90;;;;;;4407277;32;20458;-76
2023/07/21 11:01:56;;;;;;;0.20;0.20;;;20.80;99.90;;;;;;4412643;32;20085;-76
2023/07/21 11:04:26;;;;;;;1.75;0.77;;;20.70;99.90;;;;;;4412934;32;20137;-76
2023/07/21 11:06:53;;;;;;;0.37;0.37;;;20.70;99.90;;;;;;4408036;32;20091;-76
2023/07/21 11:09:21;;;;;;;3.10;0.85;;;20.70;99.90;;;;;;4412588;32;20062;-76
2023/07/21 11:11:50;;;;;;;0.45;0.45;;;20.70;99.90;;;;;;4410997;32;20074;-76
2023/07/21 11:14:18;;;;;;;0.25;0.25;;;20.70;99.90;;;;;;4412904;32;20074;-76
2023/07/21 11:16:47;;;;;;;0.30;0.30;;;20.70;99.90;;;;;;4412572;32;20078;-76
2023/07/21 11:19:15;;;;;;;0.30;0.30;;;20.70;99.90;;;;;;4412459;32;20505;-75
2023/07/21 11:21:41;;;;;;;0.50;0.50;;;20.70;99.90;;;;;;4412136;32;20077;-75
2023/07/21 11:24:08;;;;;;;7.32;0.50;;;20.70;99.90;;;;;;4410299;32;20094;-75
2023/07/21 11:26:35;;;;;;;0.50;0.50;;;20.70;99.90;;;;;;4407615;32;20070;-74
2023/07/21 11:29:03;;;;;;;0.30;0.30;;;20.70;99.90;;;;;;4411035;32;20054;-75
2023/07/21 11:31:34;;;;;;;2.17;0.50;;;20.60;99.90;;;;;;4401889;32;20128;-75
2023/07/21 11:34:00;;;;;;;0.30;0.30;;;20.70;99.90;;;;;;4412613;32;20074;-75
2023/07/21 11:36:29;;;;;;;0.60;0.60;;;20.60;99.90;;;;;;4412048;32;20083;-75
2023/07/21 11:38:58;;;;;;;3.60;1.10;;;20.60;99.90;;;;;;4413384;32;20141;-75
2023/07/21 11:41:43;;;;;;;4.37;0.45;;;20.50;99.90;;;;;;4408448;32;20082;-76
2023/07/21 11:44:17;;;;;;;0.40;0.40;;;20.50;99.90;;;;;;4412562;32;20074;-75
2023/07/21 11:46:50;;;;;;;0.30;0.30;;;20.30;99.90;;;;;;4409429;32;120049;-76
2023/07/21 11:49:16;;;;;;;0.40;0.40;;;20.30;99.90;;;;;;4411507;32;20101;-76
2023/07/21 11:51:43;;;;;;;0.30;0.30;;;20.30;99.90;;;;;;4411666;32;20510;-76
2023/07/21 11:54:18;;;;;;;0.30;0.30;;;20.30;99.90;;;;;;4412939;32;20098;-75
2023/07/21 11:56:44;;;;;;;0.40;0.40;;;20.10;99.90;;;;;;4412639;32;20053;-75
2023/07/21 11:59:10;;;;;;;0.28;0.25;;;20.00;99.90;;;;;;4411953;32;20065;-75
2023/07/21 12:01:35;;;;;;;0.30;0.30;;;19.90;99.90;;;;;;4412897;32;20074;-74
2023/07/21 12:04:01;;;;;;;0.30;0.30;;;19.90;99.90;;;;;;4412421;32;20062;-75
2023/07/21 12:06:26;;;;;;;0.22;0.22;;;19.80;99.90;;;;;;4411126;32;20062;-75
2023/07/21 12:08:52;;;;;;;0.30;0.30;;;19.80;99.90;;;;;;4412261;32;20088;-74
2023/07/21 12:11:17;;;;;;;0.30;0.30;;;19.80;99.90;;;;;;4413289;32;20086;-75
2023/07/21 12:13:43;;;;;;;0.50;0.50;;;19.90;99.90;;;;;;4413043;32;20065;-75
2023/07/21 12:16:08;;;;;;;0.60;0.60;;;19.90;99.90;;;;;;4412875;32;20069;-75
2023/07/21 12:18:34;;;;;;;0.73;0.43;;;20.00;99.90;;;;;;4413002;32;20074;-75
2023/07/21 12:20:59;;;;;;;0.73;0.73;;;20.00;99.90;;;;;;4410991;32;20082;-75
2023/07/21 12:23:25;;;;;;;0.30;0.30;;;20.00;99.90;;;;;;4412097;32;20069;-75
2023/07/21 12:25:50;;;;;;;0.30;0.30;;;20.00;99.90;;;;;;4413927;32;20082;-75
2023/07/21 12:28:16;;;;;;;0.20;0.20;;;20.00;99.90;;;;;;4414068;32;20086;-75
2023/07/21 12:30:42;;;;;;;0.28;0.28;;;20.10;99.90;;;;;;4416468;32;20078;-75
2023/07/21 12:33:07;;;;;;;0.30;0.30;;;20.00;99.90;;;;;;4414766;32;20062;-76
2023/07/21 12:35:33;;;;;;;0.30;0.30;;;20.10;99.90;;;;;;4416005;32;20439;-76
2023/07/21 12:37:59;;;;;;;0.35;0.35;;;20.10;99.90;;;;;;4414402;32;20174;-75
2023/07/21 12:40:25;;;;;;;0.20;0.20;;;20.20;99.90;;;;;;4416060;32;20070;-75
2023/07/21 12:42:50;;;;;;;0.30;0.30;;;20.20;99.90;;;;;;4414207;32;20562;-75